NK05 weather

Tom N' Jerry Airport
Danby, New York, United States

Public forecast

Using degrees Fahrenheit for public forecast. Weather courtesy of forecast.io.

Closest aviation weather report (METAR) to Tom N' Jerry Airport

Closest report is Ithaca Tompkins Regional Airport, 8.6 nm (15.9 km) NNE. Retrieved 2019/10/23 13:56 UTC (27 minutes ago):

KITH 231356Z 20007KT 10SM CLR 10/07 A2994 RMK AO2 SLP139 T01000067

Closest aviation forecast (TAF) to Tom N' Jerry Airport

Closest forecast is Ithaca Tompkins Regional Airport, 8.6 nm (15.9 km) NNE. Retrieved 2019/10/23 12:42 UTC (2 hours ago):

TAF KITH 231139Z 2312/2412 VRB04KT 6SM BR SKC FM231400 24007KT P6SM FEW020 FM231600 26012G18KT P6SM SCT040 FM240000 23006KT P6SM SKC FM240800 18007KT P6SM FEW200 WS020/25035KT